KABR/ABR METAR and TAF weather

Enter ICAO airport designator
Station Type Date Time Source
KABR METAR 2018/12/12 16:53 UTC NOAA

KABR 121653Z AUTO 17007KT 10SM CLR M04/M06 A2969 RMK AO2 SLP074 T10441056


Station Type Date Time Source
KABR Decoded METAR 2018/12/12 16:53 UTC NOAA

ABERDEEN REGIONAL AIRPORT, SD, United States (KABR) 45-27N 098-25W 400M
Dec 12, 2018 - 11:53 AM EST / 2018.12.12 1653 UTC
Wind: from the S (170 degrees) at 8 MPH (7 KT):0
Visibility: 10 mile(s):0
Sky conditions: clear
Temperature: 24.1 F (-4.4 C)
Windchill: 15 F (-9 C):1
Dew Point: 21.9 F (-5.6 C)
Relative Humidity: 91%
Pressure (altimeter): 29.69 in. Hg (1005 hPa)
ob: KABR 121653Z AUTO 17007KT 10SM CLR M04/M06 A2969 RMK AO2 SLP074 T10441056
cycle: 17

Station Type Date Time Source
KABR TAF 2018/12/12 18:22 UTC NOAA

TAF KABR 121720Z 1218/1318 17007KT P6SM SCT200
FM130500 28007KT 5SM BR VCSH OVC029
FM131000 30009KT P6SM BKN035
FM131300 31010KT P6SM SCT140


Example: see airport list